Terminal Aerodrome Forecast
Issued by NWS

Home | Current Version | Previous Version | Text Only | Print | Product List | Glossary On
Versions: 1 2 3 4 5 6 7 8 9 10 11 12 13 14 15 16
000
FTUS45 KTFX 282326
TAFCTB
TAF
KCTB 282326Z 2900/2924 29011G20KT P6SM SCT090
     FM290200 27009KT P6SM SCT090
     FM291700 26013G20KT P6SM FEW090=

USA.gov is the U.S. government's official web portal to all federal, state and local government web resources and services.